sensor_id;sensor_type;location;lat;lon;timestamp;pressure;altitude;pressure_sealevel;temperature;humidity
44659;BME280;30378;50.186;8.644;2022-12-08T00:01:22;99890.75;;;2.03;100.00
44659;BME280;30378;50.186;8.644;2022-12-08T00:03:49;99897.00;;;2.03;100.00
44659;BME280;30378;50.186;8.644;2022-12-08T00:06:28;99888.00;;;1.97;100.00
44659;BME280;30378;50.186;8.644;2022-12-08T00:12:00;99893.72;;;2.01;100.00
44659;BME280;30378;50.186;8.644;2022-12-08T00:14:38;99889.25;;;2.12;100.00
44659;BME280;30378;50.186;8.644;2022-12-08T00:17:07;99893.47;;;2.25;100.00
44659;BME280;30378;50.186;8.644;2022-12-08T00:19:36;99885.91;;;2.27;100.00
44659;BME280;30378;50.186;8.644;2022-12-08T00:22:06;99886.47;;;2.29;100.00
44659;BME280;30378;50.186;8.644;2022-12-08T00:24:35;99884.59;;;2.29;100.00
44659;BME280;30378;50.186;8.644;2022-12-08T00:27:06;99880.56;;;2.32;100.00
44659;BME280;30378;50.186;8.644;2022-12-08T00:29:34;99877.84;;;2.32;100.00
44659;BME280;30378;50.186;8.644;2022-12-08T00:32:01;99877.72;;;2.44;100.00
44659;BME280;30378;50.186;8.644;2022-12-08T00:34:30;99878.53;;;2.44;100.00
44659;BME280;30378;50.186;8.644;2022-12-08T00:36:57;99865.59;;;2.51;100.00
44659;BME280;30378;50.186;8.644;2022-12-08T00:39:24;99866.16;;;2.53;100.00
44659;BME280;30378;50.186;8.644;2022-12-08T00:41:51;99868.66;;;2.60;100.00
44659;BME280;30378;50.186;8.644;2022-12-08T00:44:37;99867.22;;;2.52;100.00
44659;BME280;30378;50.186;8.644;2022-12-08T00:47:05;99875.31;;;2.47;100.00
44659;BME280;30378;50.186;8.644;2022-12-08T00:49:32;99874.31;;;2.53;100.00
44659;BME280;30378;50.186;8.644;2022-12-08T00:51:59;99869.56;;;2.66;100.00
44659;BME280;30378;50.186;8.644;2022-12-08T00:54:26;99862.53;;;2.70;100.00
44659;BME280;30378;50.186;8.644;2022-12-08T00:56:53;99864.69;;;2.68;100.00
44659;BME280;30378;50.186;8.644;2022-12-08T00:59:20;99856.00;;;2.66;100.00
44659;BME280;30378;50.186;8.644;2022-12-08T01:01:47;99853.03;;;2.67;100.00
44659;BME280;30378;50.186;8.644;2022-12-08T01:04:16;99854.84;;;2.62;100.00
44659;BME280;30378;50.186;8.644;2022-12-08T01:06:44;99852.78;;;2.69;100.00
44659;BME280;30378;50.186;8.644;2022-12-08T01:09:13;99844.25;;;2.60;100.00
44659;BME280;30378;50.186;8.644;2022-12-08T01:11:41;99841.03;;;2.63;100.00
44659;BME280;30378;50.186;8.644;2022-12-08T01:14:11;99849.22;;;2.68;100.00
44659;BME280;30378;50.186;8.644;2022-12-08T01:16:38;99840.25;;;2.63;100.00
44659;BME280;30378;50.186;8.644;2022-12-08T01:19:09;99837.66;;;2.78;100.00
44659;BME280;30378;50.186;8.644;2022-12-08T01:21:38;99834.38;;;2.76;100.00
44659;BME280;30378;50.186;8.644;2022-12-08T01:24:06;99834.19;;;2.83;100.00
44659;BME280;30378;50.186;8.644;2022-12-08T01:26:33;99832.22;;;2.78;100.00
44659;BME280;30378;50.186;8.644;2022-12-08T01:29:00;99835.78;;;2.78;100.00
44659;BME280;30378;50.186;8.644;2022-12-08T01:31:27;99840.34;;;2.73;100.00
44659;BME280;30378;50.186;8.644;2022-12-08T01:33:54;99835.50;;;2.80;100.00
44659;BME280;30378;50.186;8.644;2022-12-08T01:36:26;99830.91;;;2.81;100.00
44659;BME280;30378;50.186;8.644;2022-12-08T01:38:56;99831.91;;;2.74;100.00
44659;BME280;30378;50.186;8.644;2022-12-08T01:41:26;99831.16;;;2.79;100.00
44659;BME280;30378;50.186;8.644;2022-12-08T01:46:51;99832.66;;;2.65;100.00
44659;BME280;30378;50.186;8.644;2022-12-08T01:54:25;99823.97;;;2.63;100.00
44659;BME280;30378;50.186;8.644;2022-12-08T01:57:03;99826.22;;;2.71;100.00
44659;BME280;30378;50.186;8.644;2022-12-08T01:59:35;99815.06;;;2.72;100.00
44659;BME280;30378;50.186;8.644;2022-12-08T02:02:04;99819.69;;;2.72;100.00
44659;BME280;30378;50.186;8.644;2022-12-08T02:04:31;99824.06;;;2.73;100.00
44659;BME280;30378;50.186;8.644;2022-12-08T02:06:58;99816.16;;;2.71;100.00
44659;BME280;30378;50.186;8.644;2022-12-08T02:09:27;99818.56;;;2.68;100.00
44659;BME280;30378;50.186;8.644;2022-12-08T02:11:55;99808.25;;;2.65;100.00
44659;BME280;30378;50.186;8.644;2022-12-08T02:14:24;99806.84;;;2.62;100.00
44659;BME280;30378;50.186;8.644;2022-12-08T02:16:57;99802.03;;;2.69;100.00
44659;BME280;30378;50.186;8.644;2022-12-08T02:20:06;99805.66;;;2.80;100.00
44659;BME280;30378;50.186;8.644;2022-12-08T02:25:30;99804.03;;;2.79;100.00
44659;BME280;30378;50.186;8.644;2022-12-08T02:39:34;99794.28;;;2.29;100.00
44659;BME280;30378;50.186;8.644;2022-12-08T02:44:51;99792.50;;;2.12;100.00
44659;BME280;30378;50.186;8.644;2022-12-08T02:47:22;99781.09;;;2.10;100.00
44659;BME280;30378;50.186;8.644;2022-12-08T02:49:50;99784.84;;;2.09;100.00
44659;BME280;30378;50.186;8.644;2022-12-08T02:54:49;99793.19;;;2.03;100.00
44659;BME280;30378;50.186;8.644;2022-12-08T03:00:06;99786.72;;;2.04;100.00
44659;BME280;30378;50.186;8.644;2022-12-08T03:08:07;99783.13;;;2.47;100.00
44659;BME280;30378;50.186;8.644;2022-12-08T03:13:34;99775.94;;;2.63;100.00
44659;BME280;30378;50.186;8.644;2022-12-08T03:16:06;99763.81;;;2.71;100.00
44659;BME280;30378;50.186;8.644;2022-12-08T03:18:37;99766.53;;;2.71;100.00
44659;BME280;30378;50.186;8.644;2022-12-08T03:21:06;99757.91;;;2.79;100.00
44659;BME280;30378;50.186;8.644;2022-12-08T03:23:35;99758.41;;;2.76;100.00
44659;BME280;30378;50.186;8.644;2022-12-08T03:26:09;99755.50;;;2.83;100.00
44659;BME280;30378;50.186;8.644;2022-12-08T03:28:37;99762.59;;;2.89;100.00
44659;BME280;30378;50.186;8.644;2022-12-08T03:31:06;99757.97;;;2.89;100.00
44659;BME280;30378;50.186;8.644;2022-12-08T03:33:38;99752.06;;;2.97;100.00
44659;BME280;30378;50.186;8.644;2022-12-08T03:36:07;99749.88;;;2.94;100.00
44659;BME280;30378;50.186;8.644;2022-12-08T03:38:40;99743.63;;;2.94;100.00
44659;BME280;30378;50.186;8.644;2022-12-08T03:41:08;99744.97;;;2.91;100.00
44659;BME280;30378;50.186;8.644;2022-12-08T03:43:48;99744.19;;;2.96;100.00
44659;BME280;30378;50.186;8.644;2022-12-08T03:46:16;99740.09;;;2.93;100.00
44659;BME280;30378;50.186;8.644;2022-12-08T03:48:43;99740.09;;;2.93;100.00
44659;BME280;30378;50.186;8.644;2022-12-08T03:51:10;99742.75;;;2.88;100.00
44659;BME280;30378;50.186;8.644;2022-12-08T03:53:38;99727.34;;;2.94;100.00
44659;BME280;30378;50.186;8.644;2022-12-08T03:56:28;99734.19;;;3.02;100.00
44659;BME280;30378;50.186;8.644;2022-12-08T03:58:53;99730.66;;;3.01;100.00
44659;BME280;30378;50.186;8.644;2022-12-08T04:01:21;99719.84;;;3.06;100.00
44659;BME280;30378;50.186;8.644;2022-12-08T04:03:48;99728.75;;;3.02;100.00
44659;BME280;30378;50.186;8.644;2022-12-08T04:06:16;99729.09;;;3.10;100.00
44659;BME280;30378;50.186;8.644;2022-12-08T04:08:43;99724.16;;;3.02;100.00
44659;BME280;30378;50.186;8.644;2022-12-08T04:11:10;99724.47;;;3.11;100.00
44659;BME280;30378;50.186;8.644;2022-12-08T04:13:38;99722.63;;;3.22;100.00
44659;BME280;30378;50.186;8.644;2022-12-08T04:16:06;99713.41;;;3.23;100.00
44659;BME280;30378;50.186;8.644;2022-12-08T04:18:34;99711.47;;;3.13;100.00
44659;BME280;30378;50.186;8.644;2022-12-08T04:21:01;99707.66;;;3.14;100.00
44659;BME280;30378;50.186;8.644;2022-12-08T04:23:28;99714.19;;;3.13;100.00
44659;BME280;30378;50.186;8.644;2022-12-08T04:25:55;99710.41;;;3.19;100.00
44659;BME280;30378;50.186;8.644;2022-12-08T04:28:21;99709.91;;;3.27;100.00
44659;BME280;30378;50.186;8.644;2022-12-08T04:30:49;99708.22;;;3.16;100.00
44659;BME280;30378;50.186;8.644;2022-12-08T04:33:16;99708.25;;;3.21;100.00
44659;BME280;30378;50.186;8.644;2022-12-08T04:35:43;99703.34;;;3.18;100.00
44659;BME280;30378;50.186;8.644;2022-12-08T04:38:10;99708.22;;;3.16;100.00
44659;BME280;30378;50.186;8.644;2022-12-08T04:40:37;99709.34;;;3.20;100.00
44659;BME280;30378;50.186;8.644;2022-12-08T04:43:04;99701.44;;;3.18;100.00
44659;BME280;30378;50.186;8.644;2022-12-08T04:45:32;99703.34;;;3.18;100.00
44659;BME280;30378;50.186;8.644;2022-12-08T04:47:59;99697.97;;;3.28;100.00
44659;BME280;30378;50.186;8.644;2022-12-08T04:50:26;99700.66;;;3.18;100.00
44659;BME280;30378;50.186;8.644;2022-12-08T04:52:53;99696.34;;;3.27;100.00
44659;BME280;30378;50.186;8.644;2022-12-08T04:55:20;99693.09;;;3.30;100.00
44659;BME280;30378;50.186;8.644;2022-12-08T04:57:47;99689.25;;;3.21;100.00
44659;BME280;30378;50.186;8.644;2022-12-08T05:00:14;99692.09;;;3.42;100.00
44659;BME280;30378;50.186;8.644;2022-12-08T05:02:42;99679.75;;;3.24;100.00
44659;BME280;30378;50.186;8.644;2022-12-08T05:05:09;99687.06;;;3.18;100.00
44659;BME280;30378;50.186;8.644;2022-12-08T05:07:36;99678.03;;;3.07;100.00
44659;BME280;30378;50.186;8.644;2022-12-08T05:10:03;99679.38;;;3.05;100.00
44659;BME280;30378;50.186;8.644;2022-12-08T05:12:31;99683.22;;;3.14;100.00
44659;BME280;30378;50.186;8.644;2022-12-08T05:14:58;99680.50;;;3.14;100.00
44659;BME280;30378;50.186;8.644;2022-12-08T05:17:25;99689.28;;;3.31;100.00
44659;BME280;30378;50.186;8.644;2022-12-08T05:19:51;99681.84;;;3.11;100.00
44659;BME280;30378;50.186;8.644;2022-12-08T05:22:19;99681.91;;;3.22;100.00
44659;BME280;30378;50.186;8.644;2022-12-08T05:24:45;99684.34;;;3.18;100.00
44659;BME280;30378;50.186;8.644;2022-12-08T05:27:13;99675.66;;;3.16;100.00
44659;BME280;30378;50.186;8.644;2022-12-08T05:29:40;99676.25;;;3.28;100.00
44659;BME280;30378;50.186;8.644;2022-12-08T05:32:07;99665.59;;;3.16;100.00
44659;BME280;30378;50.186;8.644;2022-12-08T05:34:34;99674.09;;;3.35;100.00
44659;BME280;30378;50.186;8.644;2022-12-08T05:37:01;99670.03;;;3.33;100.00
44659;BME280;30378;50.186;8.644;2022-12-08T05:39:28;99670.34;;;3.42;100.00
44659;BME280;30378;50.186;8.644;2022-12-08T05:41:55;99671.41;;;3.41;100.00
44659;BME280;30378;50.186;8.644;2022-12-08T05:44:22;99672.47;;;3.40;100.00
44659;BME280;30378;50.186;8.644;2022-12-08T05:46:49;99669.72;;;3.29;100.00
44659;BME280;30378;50.186;8.644;2022-12-08T05:49:16;99670.88;;;3.38;100.00
44659;BME280;30378;50.186;8.644;2022-12-08T05:51:43;99664.34;;;3.34;100.00
44659;BME280;30378;50.186;8.644;2022-12-08T05:54:10;99662.94;;;3.27;100.00
44659;BME280;30378;50.186;8.644;2022-12-08T05:56:37;99664.28;;;3.29;100.00
44659;BME280;30378;50.186;8.644;2022-12-08T05:59:07;99664.59;;;3.33;100.00
44659;BME280;30378;50.186;8.644;2022-12-08T06:01:34;99670.59;;;3.40;100.00
44659;BME280;30378;50.186;8.644;2022-12-08T08:15:33;99800.69;;;2.17;100.00
44659;BME280;30378;50.186;8.644;2022-12-08T08:18:01;99805.28;;;2.39;100.00
44659;BME280;30378;50.186;8.644;2022-12-08T08:20:28;99799.06;;;2.44;100.00
44659;BME280;30378;50.186;8.644;2022-12-08T08:22:55;99798.34;;;2.53;100.00
44659;BME280;30378;50.186;8.644;2022-12-08T08:25:22;99799.78;;;2.61;100.00
44659;BME280;30378;50.186;8.644;2022-12-08T08:27:49;99799.41;;;2.52;100.00
44659;BME280;30378;50.186;8.644;2022-12-08T08:30:18;99796.78;;;2.57;100.00
44659;BME280;30378;50.186;8.644;2022-12-08T08:32:47;99796.56;;;2.64;100.00
44659;BME280;30378;50.186;8.644;2022-12-08T08:35:14;99787.59;;;2.64;100.00
44659;BME280;30378;50.186;8.644;2022-12-08T08:37:41;99787.75;;;2.79;100.00
44659;BME280;30378;50.186;8.644;2022-12-08T08:40:12;99790.41;;;2.74;100.00
44659;BME280;30378;50.186;8.644;2022-12-08T08:42:39;99786.66;;;2.80;100.00
44659;BME280;30378;50.186;8.644;2022-12-08T08:45:06;99785.19;;;2.94;100.00
44659;BME280;30378;50.186;8.644;2022-12-08T08:47:33;99782.16;;;2.91;100.00
44659;BME280;30378;50.186;8.644;2022-12-08T08:50:00;99786.72;;;2.85;100.00
44659;BME280;30378;50.186;8.644;2022-12-08T08:52:27;99788.34;;;2.86;100.00
44659;BME280;30378;50.186;8.644;2022-12-08T08:54:54;99780.81;;;2.93;100.00
44659;BME280;30378;50.186;8.644;2022-12-08T08:57:21;99777.59;;;2.96;100.00
44659;BME280;30378;50.186;8.644;2022-12-08T08:59:51;99774.41;;;3.10;100.00
44659;BME280;30378;50.186;8.644;2022-12-08T09:02:18;99766.81;;;3.07;100.00
44659;BME280;30378;50.186;8.644;2022-12-08T09:04:46;99772.91;;;3.24;100.00
44659;BME280;30378;50.186;8.644;2022-12-08T09:07:13;99768.09;;;3.36;100.00
44659;BME280;30378;50.186;8.644;2022-12-08T09:09:42;99764.56;;;3.36;100.00
44659;BME280;30378;50.186;8.644;2022-12-08T09:12:10;99762.59;;;3.26;100.00
44659;BME280;30378;50.186;8.644;2022-12-08T09:14:38;99749.28;;;3.25;100.00
44659;BME280;30378;50.186;8.644;2022-12-08T09:17:05;99738.66;;;3.23;100.00
44659;BME280;30378;50.186;8.644;2022-12-08T09:19:33;99747.41;;;3.30;100.00
44659;BME280;30378;50.186;8.644;2022-12-08T09:22:03;99740.47;;;3.50;100.00
44659;BME280;30378;50.186;8.644;2022-12-08T09:24:30;99736.63;;;3.46;100.00
44659;BME280;30378;50.186;8.644;2022-12-08T09:26:57;99740.09;;;3.94;100.00
44659;BME280;30378;50.186;8.644;2022-12-08T09:29:24;99739.69;;;3.60;100.00
44659;BME280;30378;50.186;8.644;2022-12-08T09:31:53;99733.44;;;3.59;100.00
44659;BME280;30378;50.186;8.644;2022-12-08T09:34:20;99739.97;;;3.63;100.00
44659;BME280;30378;50.186;8.644;2022-12-08T09:36:47;99734.53;;;3.63;100.00
44659;BME280;30378;50.186;8.644;2022-12-08T09:39:15;99736.50;;;3.78;100.00
44659;BME280;30378;50.186;8.644;2022-12-08T09:41:47;99730.16;;;3.57;100.00
44659;BME280;30378;50.186;8.644;2022-12-08T09:47:29;99716.72;;;3.93;100.00
44659;BME280;30378;50.186;8.644;2022-12-08T09:52:38;99706.72;;;4.14;100.00
44659;BME280;30378;50.186;8.644;2022-12-08T09:55:24;99697.22;;;4.32;100.00
44659;BME280;30378;50.186;8.644;2022-12-08T09:57:59;99679.22;;;4.10;100.00
44659;BME280;30378;50.186;8.644;2022-12-08T10:00:29;99684.44;;;4.27;100.00
44659;BME280;30378;50.186;8.644;2022-12-08T10:02:56;99674.66;;;4.52;100.00
44659;BME280;30378;50.186;8.644;2022-12-08T10:05:24;99672.94;;;5.07;100.00
44659;BME280;30378;50.186;8.644;2022-12-08T10:08:10;99663.44;;;5.10;100.00
44659;BME280;30378;50.186;8.644;2022-12-08T10:10:55;99655.47;;;5.29;100.00
44659;BME280;30378;50.186;8.644;2022-12-08T10:18:32;99603.19;;;6.21;100.00
44659;BME280;30378;50.186;8.644;2022-12-08T10:23:38;99604.72;;;5.48;100.00
44659;BME280;30378;50.186;8.644;2022-12-08T10:26:12;99600.16;;;5.28;100.00
44659;BME280;30378;50.186;8.644;2022-12-08T10:28:40;99599.25;;;4.78;100.00
44659;BME280;30378;50.186;8.644;2022-12-08T10:31:18;99594.88;;;4.77;100.00
44659;BME280;30378;50.186;8.644;2022-12-08T10:33:47;99592.16;;;4.82;100.00
44659;BME280;30378;50.186;8.644;2022-12-08T10:36:15;99602.81;;;4.63;100.00
44659;BME280;30378;50.186;8.644;2022-12-08T10:38:42;99595.16;;;4.81;100.00
44659;BME280;30378;50.186;8.644;2022-12-08T10:43:41;99588.41;;;4.52;100.00
44659;BME280;30378;50.186;8.644;2022-12-08T10:46:15;99591.13;;;4.57;100.00
44659;BME280;30378;50.186;8.644;2022-12-08T10:48:54;99590.28;;;4.67;100.00
44659;BME280;30378;50.186;8.644;2022-12-08T10:51:37;99586.19;;;4.70;100.00
44659;BME280;30378;50.186;8.644;2022-12-08T10:54:13;99579.63;;;4.86;100.00
44659;BME280;30378;50.186;8.644;2022-12-08T10:56:54;99570.69;;;4.65;100.00
44659;BME280;30378;50.186;8.644;2022-12-08T10:59:22;99576.94;;;4.66;100.00
44659;BME280;30378;50.186;8.644;2022-12-08T11:01:53;99576.00;;;5.11;100.00
44659;BME280;30378;50.186;8.644;2022-12-08T11:04:33;99577.16;;;5.55;100.00
44659;BME280;30378;50.186;8.644;2022-12-08T11:07:03;99577.03;;;5.21;100.00
44659;BME280;30378;50.186;8.644;2022-12-08T11:09:42;99567.13;;;5.45;100.00
44659;BME280;30378;50.186;8.644;2022-12-08T11:12:15;99578.91;;;5.35;100.00
44659;BME280;30378;50.186;8.644;2022-12-08T11:22:38;99570.19;;;4.48;100.00
44659;BME280;30378;50.186;8.644;2022-12-08T11:25:21;99577.53;;;4.52;100.00
44659;BME280;30378;50.186;8.644;2022-12-08T11:27:52;99575.53;;;4.89;100.00
44659;BME280;30378;50.186;8.644;2022-12-08T11:30:30;99560.50;;;5.07;100.00
44659;BME280;30378;50.186;8.644;2022-12-08T11:33:25;99556.06;;;5.26;100.00
44659;BME280;30378;50.186;8.644;2022-12-08T11:35:59;99549.31;;;5.08;100.00
44659;BME280;30378;50.186;8.644;2022-12-08T11:38:28;99550.94;;;5.14;100.00
44659;BME280;30378;50.186;8.644;2022-12-08T11:48:44;99551.34;;;4.72;100.00
44659;BME280;30378;50.186;8.644;2022-12-08T11:51:20;99542.63;;;4.80;100.00
44659;BME280;30378;50.186;8.644;2022-12-08T11:56:31;99544.28;;;4.66;100.00
44659;BME280;30378;50.186;8.644;2022-12-08T12:01:39;99545.09;;;4.76;100.00
44659;BME280;30378;50.186;8.644;2022-12-08T12:18:57;99520.94;;;5.64;100.00
44659;BME280;30378;50.186;8.644;2022-12-08T12:21:32;99513.09;;;5.57;100.00
44659;BME280;30378;50.186;8.644;2022-12-08T12:24:33;99498.31;;;5.29;100.00
44659;BME280;30378;50.186;8.644;2022-12-08T12:29:51;99485.63;;;5.04;100.00
44659;BME280;30378;50.186;8.644;2022-12-08T12:32:21;99491.00;;;5.14;100.00
44659;BME280;30378;50.186;8.644;2022-12-08T12:37:23;99487.41;;;5.29;100.00
44659;BME280;30378;50.186;8.644;2022-12-08T12:42:43;99486.09;;;5.22;100.00
44659;BME280;30378;50.186;8.644;2022-12-08T12:45:32;99485.03;;;5.12;100.00
44659;BME280;30378;50.186;8.644;2022-12-08T13:03:41;99480.22;;;5.44;100.00
44659;BME280;30378;50.186;8.644;2022-12-08T13:06:12;99482.56;;;5.16;100.00
44659;BME280;30378;50.186;8.644;2022-12-08T13:08:49;99485.69;;;5.39;100.00
44659;BME280;30378;50.186;8.644;2022-12-08T13:11:18;99490.69;;;5.26;100.00
44659;BME280;30378;50.186;8.644;2022-12-08T13:14:02;99491.34;;;5.08;100.00
44659;BME280;30378;50.186;8.644;2022-12-08T13:16:32;99491.03;;;5.09;100.00
44659;BME280;30378;50.186;8.644;2022-12-08T13:19:03;99483.63;;;5.20;100.00
44659;BME280;30378;50.186;8.644;2022-12-08T13:21:35;99484.97;;;5.28;100.00
44659;BME280;30378;50.186;8.644;2022-12-08T13:27:34;99475.38;;;5.35;100.00
44659;BME280;30378;50.186;8.644;2022-12-08T13:29:37;99480.00;;;5.35;100.00
44659;BME280;30378;50.186;8.644;2022-12-08T13:34:44;99470.03;;;5.60;100.00
44659;BME280;30378;50.186;8.644;2022-12-08T13:37:23;99470.41;;;5.43;100.00
44659;BME280;30378;50.186;8.644;2022-12-08T13:40:02;99467.91;;;5.51;100.00
44659;BME280;30378;50.186;8.644;2022-12-08T13:42:43;99466.66;;;5.33;100.00
44659;BME280;30378;50.186;8.644;2022-12-08T13:45:19;99463.41;;;5.31;100.00
44659;BME280;30378;50.186;8.644;2022-12-08T13:48:10;99465.72;;;5.09;100.00
44659;BME280;30378;50.186;8.644;2022-12-08T13:50:54;99458.13;;;5.01;100.00
44659;BME280;30378;50.186;8.644;2022-12-08T13:53:48;99465.69;;;5.14;100.00
44659;BME280;30378;50.186;8.644;2022-12-08T13:56:41;99456.66;;;5.24;100.00
44659;BME280;30378;50.186;8.644;2022-12-08T13:59:30;99452.38;;;5.07;100.00
44659;BME280;30378;50.186;8.644;2022-12-08T14:02:11;99462.03;;;5.34;100.00
44659;BME280;30378;50.186;8.644;2022-12-08T14:04:45;99449.50;;;5.33;100.00
44659;BME280;30378;50.186;8.644;2022-12-08T14:07:37;99456.84;;;5.38;100.00
44659;BME280;30378;50.186;8.644;2022-12-08T14:10:08;99454.38;;;5.36;100.00
44659;BME280;30378;50.186;8.644;2022-12-08T14:12:36;99461.25;;;5.28;100.00
44659;BME280;30378;50.186;8.644;2022-12-08T14:15:05;99458.41;;;5.04;100.00
44659;BME280;30378;50.186;8.644;2022-12-08T14:17:32;99456.22;;;5.06;100.00
44659;BME280;30378;50.186;8.644;2022-12-08T14:20:03;99454.34;;;5.02;100.00
44659;BME280;30378;50.186;8.644;2022-12-08T14:22:34;99457.63;;;4.93;100.00
44659;BME280;30378;50.186;8.644;2022-12-08T14:25:02;99460.13;;;4.85;100.00
44659;BME280;30378;50.186;8.644;2022-12-08T14:27:38;99456.34;;;4.75;100.00
44659;BME280;30378;50.186;8.644;2022-12-08T14:30:07;99462.97;;;4.59;100.00
44659;BME280;30378;50.186;8.644;2022-12-08T14:32:52;99467.31;;;4.50;100.00
44659;BME280;30378;50.186;8.644;2022-12-08T14:35:28;99467.63;;;4.48;100.00
44659;BME280;30378;50.186;8.644;2022-12-08T14:37:58;99466.53;;;4.44;100.00
44659;BME280;30378;50.186;8.644;2022-12-08T14:40:41;99474.75;;;4.29;100.00
44659;BME280;30378;50.186;8.644;2022-12-08T14:51:07;99472.63;;;4.05;100.00
44659;BME280;30378;50.186;8.644;2022-12-08T14:56:22;99472.06;;;4.13;100.00
44659;BME280;30378;50.186;8.644;2022-12-08T14:59:14;99476.16;;;4.11;100.00
44659;BME280;30378;50.186;8.644;2022-12-08T15:01:44;99474.50;;;4.10;100.00
44659;BME280;30378;50.186;8.644;2022-12-08T15:09:26;99450.84;;;4.00;100.00
44659;BME280;30378;50.186;8.644;2022-12-08T15:12:00;99460.13;;;3.99;100.00
44659;BME280;30378;50.186;8.644;2022-12-08T15:14:33;99460.13;;;3.94;100.00
44659;BME280;30378;50.186;8.644;2022-12-08T15:17:01;99462.81;;;3.89;100.00
44659;BME280;30378;50.186;8.644;2022-12-08T15:19:30;99465.00;;;3.87;100.00
44659;BME280;30378;50.186;8.644;2022-12-08T15:22:08;99471.28;;;3.87;100.00
44659;BME280;30378;50.186;8.644;2022-12-08T15:24:38;99472.63;;;3.74;100.00
44659;BME280;30378;50.186;8.644;2022-12-08T15:27:04;99467.19;;;3.80;100.00
44659;BME280;30378;50.186;8.644;2022-12-08T15:29:31;99477.00;;;3.75;100.00
44659;BME280;30378;50.186;8.644;2022-12-08T15:32:00;99468.28;;;3.84;100.00
44659;BME280;30378;50.186;8.644;2022-12-08T15:34:27;99469.38;;;3.77;100.00
44659;BME280;30378;50.186;8.644;2022-12-08T15:36:54;99477.50;;;3.67;100.00
44659;BME280;30378;50.186;8.644;2022-12-08T15:41:50;99469.34;;;3.57;100.00
44659;BME280;30378;50.186;8.644;2022-12-08T15:44:17;99465.56;;;3.63;100.00
44659;BME280;30378;50.186;8.644;2022-12-08T15:46:44;99462.84;;;3.53;100.00
44659;BME280;30378;50.186;8.644;2022-12-08T15:49:19;99478.88;;;3.54;100.00
44659;BME280;30378;50.186;8.644;2022-12-08T15:51:46;99471.50;;;3.40;100.00
44659;BME280;30378;50.186;8.644;2022-12-08T15:54:14;99466.34;;;3.43;100.00
44659;BME280;30378;50.186;8.644;2022-12-08T15:56:45;99474.22;;;3.29;100.00
44659;BME280;30378;50.186;8.644;2022-12-08T15:59:30;99464.44;;;3.23;100.00
44659;BME280;30378;50.186;8.644;2022-12-08T16:01:57;99472.56;;;3.23;100.00
44659;BME280;30378;50.186;8.644;2022-12-08T16:04:24;99467.69;;;3.15;100.00
44659;BME280;30378;50.186;8.644;2022-12-08T16:07:25;99459.53;;;3.15;100.00
44659;BME280;30378;50.186;8.644;2022-12-08T16:09:53;99466.59;;;3.11;100.00
44659;BME280;30378;50.186;8.644;2022-12-08T16:12:23;99466.59;;;3.11;100.00
44659;BME280;30378;50.186;8.644;2022-12-08T16:15:30;99463.84;;;3.01;100.00
44659;BME280;30378;50.186;8.644;2022-12-08T16:18:25;99464.69;;;3.06;100.00
44659;BME280;30378;50.186;8.644;2022-12-08T16:20:53;99461.16;;;3.11;100.00
44659;BME280;30378;50.186;8.644;2022-12-08T16:23:40;99463.38;;;3.24;100.00
44659;BME280;30378;50.186;8.644;2022-12-08T16:26:17;99463.06;;;3.26;100.00
44659;BME280;30378;50.186;8.644;2022-12-08T16:29:03;99472.84;;;3.27;100.00
44659;BME280;30378;50.186;8.644;2022-12-08T16:31:31;99472.59;;;3.28;100.00
44659;BME280;30378;50.186;8.644;2022-12-08T16:33:58;99468.25;;;3.27;100.00
44659;BME280;30378;50.186;8.644;2022-12-08T16:36:25;99472.63;;;3.44;100.00
44659;BME280;30378;50.186;8.644;2022-12-08T16:38:52;99467.19;;;3.38;100.00
44659;BME280;30378;50.186;8.644;2022-12-08T16:41:19;99474.50;;;3.33;100.00
44659;BME280;30378;50.186;8.644;2022-12-08T16:44:04;99474.53;;;3.38;100.00
44659;BME280;30378;50.186;8.644;2022-12-08T16:46:32;99474.22;;;3.34;100.00
44659;BME280;30378;50.186;8.644;2022-12-08T16:48:59;99476.69;;;3.41;100.00
44659;BME280;30378;50.186;8.644;2022-12-08T16:51:26;99479.66;;;3.34;100.00
44659;BME280;30378;50.186;8.644;2022-12-08T16:53:54;99465.28;;;3.44;100.00
44659;BME280;30378;50.186;8.644;2022-12-08T16:56:21;99468.81;;;3.50;100.00
44659;BME280;30378;50.186;8.644;2022-12-08T16:58:51;99467.19;;;3.44;100.00
44659;BME280;30378;50.186;8.644;2022-12-08T17:01:18;99460.69;;;3.50;100.00
44659;BME280;30378;50.186;8.644;2022-12-08T17:03:45;99463.94;;;3.62;100.00
44659;BME280;30378;50.186;8.644;2022-12-08T17:06:21;99463.91;;;3.57;100.00
44659;BME280;30378;50.186;8.644;2022-12-08T17:08:48;99469.91;;;3.49;100.00
44659;BME280;30378;50.186;8.644;2022-12-08T17:11:22;99468.81;;;3.55;100.00
44659;BME280;30378;50.186;8.644;2022-12-08T17:13:52;99468.00;;;3.49;100.00
44659;BME280;30378;50.186;8.644;2022-12-08T17:16:19;99457.13;;;3.44;100.00
44659;BME280;30378;50.186;8.644;2022-12-08T17:18:46;99457.69;;;3.46;100.00
44659;BME280;30378;50.186;8.644;2022-12-08T17:21:15;99458.22;;;3.43;100.00
44659;BME280;30378;50.186;8.644;2022-12-08T17:23:43;99460.94;;;3.38;100.00
44659;BME280;30378;50.186;8.644;2022-12-08T17:26:11;99456.88;;;3.46;100.00
44659;BME280;30378;50.186;8.644;2022-12-08T17:28:39;99457.41;;;3.53;100.00
44659;BME280;30378;50.186;8.644;2022-12-08T17:31:25;99460.66;;;3.45;100.00
44659;BME280;30378;50.186;8.644;2022-12-08T17:34:05;99458.75;;;3.45;100.00
44659;BME280;30378;50.186;8.644;2022-12-08T17:36:36;99462.31;;;3.46;100.00
44659;BME280;30378;50.186;8.644;2022-12-08T17:39:04;99457.97;;;3.50;100.00
44659;BME280;30378;50.186;8.644;2022-12-08T17:41:31;99456.88;;;3.46;100.00
44659;BME280;30378;50.186;8.644;2022-12-08T17:43:58;99458.22;;;3.43;100.00
44659;BME280;30378;50.186;8.644;2022-12-08T17:46:25;99459.56;;;3.41;100.00
44659;BME280;30378;50.186;8.644;2022-12-08T17:48:53;99457.66;;;3.41;100.00
44659;BME280;30378;50.186;8.644;2022-12-08T17:51:20;99460.66;;;3.34;100.00
44659;BME280;30378;50.186;8.644;2022-12-08T17:53:47;99454.38;;;3.18;100.00